sensor_id;sensor_type;location;lat;lon;timestamp;P1;durP1;ratioP1;P2;durP2;ratioP2
14076;SDS011;7114;51.100;13.998;2023-04-01T00:00:18;4.57;;;0.40;;
14076;SDS011;7114;51.100;13.998;2023-04-01T00:02:45;3.15;;;0.40;;
14076;SDS011;7114;51.100;13.998;2023-04-01T00:05:12;3.15;;;0.40;;
14076;SDS011;7114;51.100;13.998;2023-04-01T00:07:38;3.73;;;0.40;;
14076;SDS011;7114;51.100;13.998;2023-04-01T00:10:05;3.72;;;0.40;;
14076;SDS011;7114;51.100;13.998;2023-04-01T00:12:34;4.25;;;0.50;;
14076;SDS011;7114;51.100;13.998;2023-04-01T00:15:01;3.35;;;0.40;;
14076;SDS011;7114;51.100;13.998;2023-04-01T00:17:28;4.35;;;0.30;;
14076;SDS011;7114;51.100;13.998;2023-04-01T00:19:55;2.93;;;0.30;;
14076;SDS011;7114;51.100;13.998;2023-04-01T00:22:21;3.03;;;0.40;;
14076;SDS011;7114;51.100;13.998;2023-04-01T00:24:47;4.45;;;0.35;;
14076;SDS011;7114;51.100;13.998;2023-04-01T00:27:14;6.25;;;0.60;;
14076;SDS011;7114;51.100;13.998;2023-04-01T00:29:42;4.57;;;0.38;;
14076;SDS011;7114;51.100;13.998;2023-04-01T00:32:09;3.43;;;0.30;;
14076;SDS011;7114;51.100;13.998;2023-04-01T00:34:35;4.78;;;0.40;;
14076;SDS011;7114;51.100;13.998;2023-04-01T00:37:02;4.45;;;0.45;;
14076;SDS011;7114;51.100;13.998;2023-04-01T00:39:29;3.58;;;0.40;;
14076;SDS011;7114;51.100;13.998;2023-04-01T00:41:56;6.13;;;0.50;;
14076;SDS011;7114;51.100;13.998;2023-04-01T00:44:23;4.40;;;0.50;;
14076;SDS011;7114;51.100;13.998;2023-04-01T00:46:52;3.25;;;0.30;;
14076;SDS011;7114;51.100;13.998;2023-04-01T00:49:19;4.55;;;0.40;;
14076;SDS011;7114;51.100;13.998;2023-04-01T00:51:46;3.45;;;0.40;;
14076;SDS011;7114;51.100;13.998;2023-04-01T00:54:15;6.07;;;0.40;;
14076;SDS011;7114;51.100;13.998;2023-04-01T00:56:43;5.27;;;0.40;;
14076;SDS011;7114;51.100;13.998;2023-04-01T00:59:14;5.15;;;0.60;;
14076;SDS011;7114;51.100;13.998;2023-04-01T01:01:42;5.35;;;0.57;;
14076;SDS011;7114;51.100;13.998;2023-04-01T01:04:21;3.25;;;0.38;;
14076;SDS011;7114;51.100;13.998;2023-04-01T01:06:50;3.83;;;0.40;;
14076;SDS011;7114;51.100;13.998;2023-04-01T01:09:24;3.80;;;0.50;;
14076;SDS011;7114;51.100;13.998;2023-04-01T01:11:54;4.88;;;0.50;;
14076;SDS011;7114;51.100;13.998;2023-04-01T01:14:25;4.18;;;0.40;;
14076;SDS011;7114;51.100;13.998;2023-04-01T01:17:01;4.50;;;0.40;;
14076;SDS011;7114;51.100;13.998;2023-04-01T01:19:37;4.10;;;0.50;;
14076;SDS011;7114;51.100;13.998;2023-04-01T01:22:20;5.60;;;0.50;;
14076;SDS011;7114;51.100;13.998;2023-04-01T01:25:02;5.28;;;0.40;;
14076;SDS011;7114;51.100;13.998;2023-04-01T01:27:37;3.97;;;0.40;;
14076;SDS011;7114;51.100;13.998;2023-04-01T01:30:18;5.95;;;0.45;;
14076;SDS011;7114;51.100;13.998;2023-04-01T01:32:59;3.97;;;0.50;;
14076;SDS011;7114;51.100;13.998;2023-04-01T01:35:32;4.63;;;0.40;;
14076;SDS011;7114;51.100;13.998;2023-04-01T01:38:01;4.93;;;0.40;;
14076;SDS011;7114;51.100;13.998;2023-04-01T01:40:29;3.97;;;0.40;;
14076;SDS011;7114;51.100;13.998;2023-04-01T01:42:58;3.17;;;0.40;;
14076;SDS011;7114;51.100;13.998;2023-04-01T01:45:26;3.88;;;0.43;;
14076;SDS011;7114;51.100;13.998;2023-04-01T01:47:53;4.97;;;0.57;;
14076;SDS011;7114;51.100;13.998;2023-04-01T01:50:20;4.07;;;0.50;;
14076;SDS011;7114;51.100;13.998;2023-04-01T01:52:48;6.32;;;0.95;;
14076;SDS011;7114;51.100;13.998;2023-04-01T01:55:28;4.65;;;0.43;;
14076;SDS011;7114;51.100;13.998;2023-04-01T01:57:56;4.30;;;0.50;;
14076;SDS011;7114;51.100;13.998;2023-04-01T02:00:25;4.87;;;0.50;;
14076;SDS011;7114;51.100;13.998;2023-04-01T02:02:51;4.95;;;0.40;;
14076;SDS011;7114;51.100;13.998;2023-04-01T02:05:20;4.68;;;0.45;;
14076;SDS011;7114;51.100;13.998;2023-04-01T02:07:49;4.55;;;0.80;;
14076;SDS011;7114;51.100;13.998;2023-04-01T02:10:20;3.85;;;0.30;;
14076;SDS011;7114;51.100;13.998;2023-04-01T02:12:49;4.43;;;0.40;;
14076;SDS011;7114;51.100;13.998;2023-04-01T02:15:16;4.75;;;0.30;;
14076;SDS011;7114;51.100;13.998;2023-04-01T02:17:45;2.50;;;0.30;;
14076;SDS011;7114;51.100;13.998;2023-04-01T02:20:14;3.65;;;0.60;;
14076;SDS011;7114;51.100;13.998;2023-04-01T02:22:43;4.22;;;0.40;;
14076;SDS011;7114;51.100;13.998;2023-04-01T02:25:13;4.47;;;0.40;;
14076;SDS011;7114;51.100;13.998;2023-04-01T02:27:43;4.75;;;0.40;;
14076;SDS011;7114;51.100;13.998;2023-04-01T02:30:10;4.88;;;0.40;;
14076;SDS011;7114;51.100;13.998;2023-04-01T02:32:37;1.98;;;0.20;;
14076;SDS011;7114;51.100;13.998;2023-04-01T02:35:04;3.97;;;0.30;;
14076;SDS011;7114;51.100;13.998;2023-04-01T02:37:31;5.57;;;0.50;;
14076;SDS011;7114;51.100;13.998;2023-04-01T02:39:58;3.58;;;0.50;;
14076;SDS011;7114;51.100;13.998;2023-04-01T02:42:26;5.28;;;0.40;;
14076;SDS011;7114;51.100;13.998;2023-04-01T02:44:53;3.92;;;0.43;;
14076;SDS011;7114;51.100;13.998;2023-04-01T02:47:19;4.65;;;0.40;;
14076;SDS011;7114;51.100;13.998;2023-04-01T02:49:45;4.47;;;0.50;;
14076;SDS011;7114;51.100;13.998;2023-04-01T02:52:11;4.78;;;0.55;;
14076;SDS011;7114;51.100;13.998;2023-04-01T02:54:38;5.40;;;0.70;;
14076;SDS011;7114;51.100;13.998;2023-04-01T02:57:04;4.45;;;0.40;;
14076;SDS011;7114;51.100;13.998;2023-04-01T02:59:32;4.25;;;0.52;;
14076;SDS011;7114;51.100;13.998;2023-04-01T03:01:58;3.73;;;0.40;;
14076;SDS011;7114;51.100;13.998;2023-04-01T03:04:25;4.63;;;0.40;;
14076;SDS011;7114;51.100;13.998;2023-04-01T03:06:51;3.42;;;0.50;;
14076;SDS011;7114;51.100;13.998;2023-04-01T03:09:17;4.97;;;0.40;;
14076;SDS011;7114;51.100;13.998;2023-04-01T03:11:43;5.50;;;0.43;;
14076;SDS011;7114;51.100;13.998;2023-04-01T03:14:10;4.10;;;0.40;;
14076;SDS011;7114;51.100;13.998;2023-04-01T03:16:37;3.45;;;0.47;;
14076;SDS011;7114;51.100;13.998;2023-04-01T03:19:04;6.85;;;0.60;;
14076;SDS011;7114;51.100;13.998;2023-04-01T03:21:30;5.85;;;0.50;;
14076;SDS011;7114;51.100;13.998;2023-04-01T03:23:56;4.45;;;0.50;;
14076;SDS011;7114;51.100;13.998;2023-04-01T03:26:23;3.03;;;0.40;;
14076;SDS011;7114;51.100;13.998;2023-04-01T03:28:51;6.55;;;0.50;;
14076;SDS011;7114;51.100;13.998;2023-04-01T03:31:18;4.82;;;0.50;;
14076;SDS011;7114;51.100;13.998;2023-04-01T03:33:45;4.85;;;0.95;;
14076;SDS011;7114;51.100;13.998;2023-04-01T03:36:12;4.47;;;0.57;;
14076;SDS011;7114;51.100;13.998;2023-04-01T03:38:39;4.07;;;0.40;;
14076;SDS011;7114;51.100;13.998;2023-04-01T03:41:05;6.57;;;0.50;;
14076;SDS011;7114;51.100;13.998;2023-04-01T03:43:32;5.68;;;0.47;;
14076;SDS011;7114;51.100;13.998;2023-04-01T03:45:58;4.65;;;0.40;;
14076;SDS011;7114;51.100;13.998;2023-04-01T03:48:25;5.28;;;0.40;;
14076;SDS011;7114;51.100;13.998;2023-04-01T03:50:53;4.33;;;0.60;;
14076;SDS011;7114;51.100;13.998;2023-04-01T03:53:19;6.50;;;0.50;;
14076;SDS011;7114;51.100;13.998;2023-04-01T03:55:45;5.60;;;0.40;;
14076;SDS011;7114;51.100;13.998;2023-04-01T03:58:12;4.95;;;0.55;;
14076;SDS011;7114;51.100;13.998;2023-04-01T04:00:38;4.88;;;0.60;;
14076;SDS011;7114;51.100;13.998;2023-04-01T04:03:05;4.77;;;0.50;;
14076;SDS011;7114;51.100;13.998;2023-04-01T04:05:31;5.35;;;0.60;;
14076;SDS011;7114;51.100;13.998;2023-04-01T04:07:59;4.20;;;0.52;;
14076;SDS011;7114;51.100;13.998;2023-04-01T04:10:25;5.25;;;0.70;;
14076;SDS011;7114;51.100;13.998;2023-04-01T04:12:54;5.80;;;0.50;;
14076;SDS011;7114;51.100;13.998;2023-04-01T04:15:20;3.93;;;0.93;;
14076;SDS011;7114;51.100;13.998;2023-04-01T04:17:47;5.03;;;0.60;;
14076;SDS011;7114;51.100;13.998;2023-04-01T04:20:13;5.30;;;0.60;;
14076;SDS011;7114;51.100;13.998;2023-04-01T04:22:40;5.78;;;0.80;;
14076;SDS011;7114;51.100;13.998;2023-04-01T04:25:08;4.93;;;0.80;;
14076;SDS011;7114;51.100;13.998;2023-04-01T04:27:34;4.80;;;0.50;;
14076;SDS011;7114;51.100;13.998;2023-04-01T04:30:01;7.53;;;0.82;;
14076;SDS011;7114;51.100;13.998;2023-04-01T04:32:28;4.93;;;0.60;;
14076;SDS011;7114;51.100;13.998;2023-04-01T04:34:54;7.70;;;0.50;;
14076;SDS011;7114;51.100;13.998;2023-04-01T04:37:20;4.57;;;0.40;;
14076;SDS011;7114;51.100;13.998;2023-04-01T04:39:47;5.07;;;0.50;;
14076;SDS011;7114;51.100;13.998;2023-04-01T04:42:14;4.28;;;0.60;;
14076;SDS011;7114;51.100;13.998;2023-04-01T04:44:41;6.15;;;0.60;;
14076;SDS011;7114;51.100;13.998;2023-04-01T04:47:07;4.25;;;0.50;;
14076;SDS011;7114;51.100;13.998;2023-04-01T04:49:33;4.50;;;0.50;;
14076;SDS011;7114;51.100;13.998;2023-04-01T04:51:59;6.23;;;0.40;;
14076;SDS011;7114;51.100;13.998;2023-04-01T04:54:26;6.63;;;0.60;;
14076;SDS011;7114;51.100;13.998;2023-04-01T04:56:52;5.38;;;0.47;;
14076;SDS011;7114;51.100;13.998;2023-04-01T04:59:20;5.50;;;0.43;;
14076;SDS011;7114;51.100;13.998;2023-04-01T05:01:46;7.13;;;0.73;;
14076;SDS011;7114;51.100;13.998;2023-04-01T05:04:12;5.63;;;0.60;;
14076;SDS011;7114;51.100;13.998;2023-04-01T05:06:38;6.22;;;0.60;;
14076;SDS011;7114;51.100;13.998;2023-04-01T05:09:05;3.97;;;0.43;;
14076;SDS011;7114;51.100;13.998;2023-04-01T05:11:31;3.10;;;0.40;;
14076;SDS011;7114;51.100;13.998;2023-04-01T05:13:57;3.67;;;0.40;;
14076;SDS011;7114;51.100;13.998;2023-04-01T05:16:25;5.67;;;0.50;;
14076;SDS011;7114;51.100;13.998;2023-04-01T05:18:51;5.75;;;0.50;;
14076;SDS011;7114;51.100;13.998;2023-04-01T05:21:17;4.32;;;0.57;;
14076;SDS011;7114;51.100;13.998;2023-04-01T05:23:44;4.70;;;0.50;;
14076;SDS011;7114;51.100;13.998;2023-04-01T05:26:10;4.30;;;0.50;;
14076;SDS011;7114;51.100;13.998;2023-04-01T05:28:38;6.90;;;0.60;;
14076;SDS011;7114;51.100;13.998;2023-04-01T05:31:05;4.78;;;0.60;;
14076;SDS011;7114;51.100;13.998;2023-04-01T05:33:33;5.07;;;0.75;;
14076;SDS011;7114;51.100;13.998;2023-04-01T05:36:05;6.03;;;0.50;;
14076;SDS011;7114;51.100;13.998;2023-04-01T05:38:32;4.05;;;0.50;;
14076;SDS011;7114;51.100;13.998;2023-04-01T05:40:59;5.07;;;0.63;;
14076;SDS011;7114;51.100;13.998;2023-04-01T05:43:25;4.70;;;0.60;;
14076;SDS011;7114;51.100;13.998;2023-04-01T05:45:52;2.78;;;0.40;;
14076;SDS011;7114;51.100;13.998;2023-04-01T05:48:18;5.43;;;0.43;;
14076;SDS011;7114;51.100;13.998;2023-04-01T05:50:45;4.07;;;0.40;;
14076;SDS011;7114;51.100;13.998;2023-04-01T05:53:12;3.80;;;0.50;;
14076;SDS011;7114;51.100;13.998;2023-04-01T05:55:38;3.67;;;0.30;;
14076;SDS011;7114;51.100;13.998;2023-04-01T05:58:04;5.90;;;0.40;;
14076;SDS011;7114;51.100;13.998;2023-04-01T06:00:30;3.97;;;0.40;;
14076;SDS011;7114;51.100;13.998;2023-04-01T06:02:57;4.97;;;0.40;;
14076;SDS011;7114;51.100;13.998;2023-04-01T06:05:24;4.00;;;0.50;;
14076;SDS011;7114;51.100;13.998;2023-04-01T06:07:55;3.42;;;0.40;;
14076;SDS011;7114;51.100;13.998;2023-04-01T06:10:25;3.40;;;0.40;;
14076;SDS011;7114;51.100;13.998;2023-04-01T06:13:00;2.63;;;0.38;;
14076;SDS011;7114;51.100;13.998;2023-04-01T06:15:32;4.47;;;0.40;;
14076;SDS011;7114;51.100;13.998;2023-04-01T06:18:21;6.20;;;0.60;;
14076;SDS011;7114;51.100;13.998;2023-04-01T06:21:00;4.50;;;0.40;;
14076;SDS011;7114;51.100;13.998;2023-04-01T06:23:37;4.68;;;0.43;;
14076;SDS011;7114;51.100;13.998;2023-04-01T06:26:11;3.63;;;0.60;;
14076;SDS011;7114;51.100;13.998;2023-04-01T06:28:54;5.40;;;0.73;;
14076;SDS011;7114;51.100;13.998;2023-04-01T06:31:33;5.43;;;0.57;;
14076;SDS011;7114;51.100;13.998;2023-04-01T06:34:11;5.55;;;0.43;;
14076;SDS011;7114;51.100;13.998;2023-04-01T06:36:57;4.57;;;0.43;;
14076;SDS011;7114;51.100;13.998;2023-04-01T06:39:36;4.72;;;0.60;;
14076;SDS011;7114;51.100;13.998;2023-04-01T06:42:14;3.30;;;0.50;;
14076;SDS011;7114;51.100;13.998;2023-04-01T06:44:59;4.23;;;0.50;;
14076;SDS011;7114;51.100;13.998;2023-04-01T06:47:36;4.20;;;0.45;;
14076;SDS011;7114;51.100;13.998;2023-04-01T06:50:08;8.68;;;0.52;;
14076;SDS011;7114;51.100;13.998;2023-04-01T06:52:42;6.10;;;0.57;;
14076;SDS011;7114;51.100;13.998;2023-04-01T06:55:18;5.53;;;0.75;;
14076;SDS011;7114;51.100;13.998;2023-04-01T06:57:50;5.20;;;0.50;;
14076;SDS011;7114;51.100;13.998;2023-04-01T07:00:19;4.22;;;0.40;;
14076;SDS011;7114;51.100;13.998;2023-04-01T07:02:50;4.03;;;0.43;;
14076;SDS011;7114;51.100;13.998;2023-04-01T07:05:23;4.50;;;0.55;;
14076;SDS011;7114;51.100;13.998;2023-04-01T07:07:50;5.68;;;0.40;;
14076;SDS011;7114;51.100;13.998;2023-04-01T07:10:22;4.27;;;0.50;;
14076;SDS011;7114;51.100;13.998;2023-04-01T07:12:52;4.43;;;0.50;;
14076;SDS011;7114;51.100;13.998;2023-04-01T07:15:22;5.43;;;0.50;;
14076;SDS011;7114;51.100;13.998;2023-04-01T07:17:52;4.68;;;0.95;;
14076;SDS011;7114;51.100;13.998;2023-04-01T07:20:20;3.78;;;0.40;;
14076;SDS011;7114;51.100;13.998;2023-04-01T07:22:49;3.53;;;0.40;;
14076;SDS011;7114;51.100;13.998;2023-04-01T07:25:17;4.47;;;0.50;;
14076;SDS011;7114;51.100;13.998;2023-04-01T07:27:46;5.60;;;0.50;;
14076;SDS011;7114;51.100;13.998;2023-04-01T07:30:14;5.47;;;0.45;;
14076;SDS011;7114;51.100;13.998;2023-04-01T07:32:42;4.85;;;0.52;;
14076;SDS011;7114;51.100;13.998;2023-04-01T07:35:13;4.50;;;0.70;;
14076;SDS011;7114;51.100;13.998;2023-04-01T07:37:47;3.38;;;0.47;;
14076;SDS011;7114;51.100;13.998;2023-04-01T07:40:23;3.97;;;0.40;;
14076;SDS011;7114;51.100;13.998;2023-04-01T07:43:01;4.80;;;0.32;;
14076;SDS011;7114;51.100;13.998;2023-04-01T07:45:36;5.47;;;0.50;;
14076;SDS011;7114;51.100;13.998;2023-04-01T07:48:08;5.23;;;0.50;;
14076;SDS011;7114;51.100;13.998;2023-04-01T07:50:44;4.20;;;0.50;;
14076;SDS011;7114;51.100;13.998;2023-04-01T07:53:14;5.90;;;0.60;;
14076;SDS011;7114;51.100;13.998;2023-04-01T07:55:47;5.47;;;0.55;;
14076;SDS011;7114;51.100;13.998;2023-04-01T07:58:19;3.70;;;0.30;;
14076;SDS011;7114;51.100;13.998;2023-04-01T08:00:51;4.37;;;0.50;;
14076;SDS011;7114;51.100;13.998;2023-04-01T08:03:28;6.43;;;0.45;;
14076;SDS011;7114;51.100;13.998;2023-04-01T08:06:00;3.78;;;0.50;;
14076;SDS011;7114;51.100;13.998;2023-04-01T08:08:32;4.22;;;0.60;;
14076;SDS011;7114;51.100;13.998;2023-04-01T08:11:04;4.43;;;0.40;;
14076;SDS011;7114;51.100;13.998;2023-04-01T08:13:38;4.87;;;0.43;;
14076;SDS011;7114;51.100;13.998;2023-04-01T08:16:09;4.60;;;0.47;;
14076;SDS011;7114;51.100;13.998;2023-04-01T08:18:40;3.28;;;0.40;;
14076;SDS011;7114;51.100;13.998;2023-04-01T08:21:10;3.17;;;0.40;;
14076;SDS011;7114;51.100;13.998;2023-04-01T08:23:40;4.85;;;0.40;;
14076;SDS011;7114;51.100;13.998;2023-04-01T08:26:10;3.00;;;0.40;;
14076;SDS011;7114;51.100;13.998;2023-04-01T08:28:41;5.03;;;0.60;;
14076;SDS011;7114;51.100;13.998;2023-04-01T08:31:10;3.08;;;0.50;;
14076;SDS011;7114;51.100;13.998;2023-04-01T08:33:38;3.10;;;0.40;;
14076;SDS011;7114;51.100;13.998;2023-04-01T08:36:06;4.85;;;0.50;;
14076;SDS011;7114;51.100;13.998;2023-04-01T08:38:38;3.63;;;0.40;;
14076;SDS011;7114;51.100;13.998;2023-04-01T08:41:10;4.60;;;0.50;;
14076;SDS011;7114;51.100;13.998;2023-04-01T08:44:14;4.55;;;0.45;;
14076;SDS011;7114;51.100;13.998;2023-04-01T08:46:50;5.30;;;0.43;;
14076;SDS011;7114;51.100;13.998;2023-04-01T08:49:25;4.18;;;0.40;;
14076;SDS011;7114;51.100;13.998;2023-04-01T08:52:09;4.50;;;0.60;;
14076;SDS011;7114;51.100;13.998;2023-04-01T08:55:03;3.25;;;0.50;;
14076;SDS011;7114;51.100;13.998;2023-04-01T08:57:43;3.25;;;0.35;;
14076;SDS011;7114;51.100;13.998;2023-04-01T09:00:17;5.07;;;0.50;;
14076;SDS011;7114;51.100;13.998;2023-04-01T09:02:59;3.78;;;0.60;;
14076;SDS011;7114;51.100;13.998;2023-04-01T09:06:00;4.00;;;0.50;;
14076;SDS011;7114;51.100;13.998;2023-04-01T09:08:37;4.57;;;0.70;;
14076;SDS011;7114;51.100;13.998;2023-04-01T09:11:16;5.57;;;0.80;;
14076;SDS011;7114;51.100;13.998;2023-04-01T09:14:03;4.00;;;0.40;;
14076;SDS011;7114;51.100;13.998;2023-04-01T09:16:48;5.70;;;0.52;;
14076;SDS011;7114;51.100;13.998;2023-04-01T09:19:46;4.90;;;0.50;;
14076;SDS011;7114;51.100;13.998;2023-04-01T09:22:22;4.32;;;0.70;;
14076;SDS011;7114;51.100;13.998;2023-04-01T09:25:04;4.68;;;0.50;;
14076;SDS011;7114;51.100;13.998;2023-04-01T09:27:40;3.15;;;0.40;;
14076;SDS011;7114;51.100;13.998;2023-04-01T09:30:18;4.82;;;0.50;;
14076;SDS011;7114;51.100;13.998;2023-04-01T09:33:01;3.83;;;0.50;;
14076;SDS011;7114;51.100;13.998;2023-04-01T09:35:38;3.72;;;0.50;;
14076;SDS011;7114;51.100;13.998;2023-04-01T09:38:15;2.97;;;0.50;;
14076;SDS011;7114;51.100;13.998;2023-04-01T09:40:47;4.63;;;0.50;;
14076;SDS011;7114;51.100;13.998;2023-04-01T09:43:26;4.65;;;0.60;;
14076;SDS011;7114;51.100;13.998;2023-04-01T09:46:10;4.00;;;0.67;;
14076;SDS011;7114;51.100;13.998;2023-04-01T09:48:50;6.45;;;1.17;;
14076;SDS011;7114;51.100;13.998;2023-04-01T09:51:27;7.35;;;0.90;;
14076;SDS011;7114;51.100;13.998;2023-04-01T09:54:07;6.72;;;1.38;;
14076;SDS011;7114;51.100;13.998;2023-04-01T09:56:53;8.57;;;1.52;;
14076;SDS011;7114;51.100;13.998;2023-04-01T10:02:33;6.32;;;1.40;;
14076;SDS011;7114;51.100;13.998;2023-04-01T10:05:17;9.07;;;2.10;;
14076;SDS011;7114;51.100;13.998;2023-04-01T10:07:58;7.47;;;2.00;;
14076;SDS011;7114;51.100;13.998;2023-04-01T10:10:57;7.18;;;1.27;;
14076;SDS011;7114;51.100;13.998;2023-04-01T10:13:36;12.40;;;1.03;;
14076;SDS011;7114;51.100;13.998;2023-04-01T10:16:25;6.15;;;0.50;;
14076;SDS011;7114;51.100;13.998;2023-04-01T10:18:59;3.55;;;0.50;;
14076;SDS011;7114;51.100;13.998;2023-04-01T10:21:45;3.42;;;0.40;;
14076;SDS011;7114;51.100;13.998;2023-04-01T10:24:25;3.35;;;0.50;;
14076;SDS011;7114;51.100;13.998;2023-04-01T10:30:23;8.30;;;1.58;;
14076;SDS011;7114;51.100;13.998;2023-04-01T10:36:16;4.68;;;0.90;;
14076;SDS011;7114;51.100;13.998;2023-04-01T10:39:10;5.45;;;1.00;;
14076;SDS011;7114;51.100;13.998;2023-04-01T10:41:56;5.23;;;1.00;;
14076;SDS011;7114;51.100;13.998;2023-04-01T10:44:39;6.15;;;0.90;;
14076;SDS011;7114;51.100;13.998;2023-04-01T10:47:33;5.32;;;0.82;;
14076;SDS011;7114;51.100;13.998;2023-04-01T10:50:16;4.28;;;0.80;;
14076;SDS011;7114;51.100;13.998;2023-04-01T10:53:24;4.60;;;0.85;;
14076;SDS011;7114;51.100;13.998;2023-04-01T10:56:13;5.80;;;1.13;;
14076;SDS011;7114;51.100;13.998;2023-04-01T10:59:04;4.88;;;0.60;;
14076;SDS011;7114;51.100;13.998;2023-04-01T11:07:52;5.20;;;0.50;;
14076;SDS011;7114;51.100;13.998;2023-04-01T11:10:47;4.40;;;0.73;;
14076;SDS011;7114;51.100;13.998;2023-04-01T11:13:44;4.88;;;1.15;;
14076;SDS011;7114;51.100;13.998;2023-04-01T11:22:20;4.20;;;0.65;;
14076;SDS011;7114;51.100;13.998;2023-04-01T11:25:11;3.77;;;0.50;;
14076;SDS011;7114;51.100;13.998;2023-04-01T11:28:07;4.18;;;0.70;;
14076;SDS011;7114;51.100;13.998;2023-04-01T11:30:55;5.60;;;0.52;;
14076;SDS011;7114;51.100;13.998;2023-04-01T11:33:38;3.83;;;0.50;;
14076;SDS011;7114;51.100;13.998;2023-04-01T11:36:11;4.38;;;0.60;;
14076;SDS011;7114;51.100;13.998;2023-04-01T11:39:01;4.10;;;0.67;;
14076;SDS011;7114;51.100;13.998;2023-04-01T11:41:33;4.00;;;0.60;;
14076;SDS011;7114;51.100;13.998;2023-04-01T11:44:10;4.95;;;0.80;;
14076;SDS011;7114;51.100;13.998;2023-04-01T11:46:45;6.45;;;1.65;;
14076;SDS011;7114;51.100;13.998;2023-04-01T11:49:23;5.35;;;1.30;;
14076;SDS011;7114;51.100;13.998;2023-04-01T11:52:01;5.77;;;1.10;;
14076;SDS011;7114;51.100;13.998;2023-04-01T11:57:30;4.65;;;0.70;;
14076;SDS011;7114;51.100;13.998;2023-04-01T12:00:34;5.00;;;1.00;;
14076;SDS011;7114;51.100;13.998;2023-04-01T12:03:15;5.20;;;1.60;;
14076;SDS011;7114;51.100;13.998;2023-04-01T12:05:48;3.97;;;0.70;;
14076;SDS011;7114;51.100;13.998;2023-04-01T12:08:20;4.13;;;0.80;;
14076;SDS011;7114;51.100;13.998;2023-04-01T12:10:53;5.05;;;0.80;;
14076;SDS011;7114;51.100;13.998;2023-04-01T12:13:26;4.25;;;0.77;;
14076;SDS011;7114;51.100;13.998;2023-04-01T12:16:16;3.80;;;0.70;;
14076;SDS011;7114;51.100;13.998;2023-04-01T12:18:52;4.00;;;0.73;;
14076;SDS011;7114;51.100;13.998;2023-04-01T12:21:22;4.03;;;0.90;;
14076;SDS011;7114;51.100;13.998;2023-04-01T12:23:59;4.57;;;0.70;;
14076;SDS011;7114;51.100;13.998;2023-04-01T12:26:39;4.90;;;0.80;;
14076;SDS011;7114;51.100;13.998;2023-04-01T12:32:04;5.43;;;1.00;;
14076;SDS011;7114;51.100;13.998;2023-04-01T12:34:42;5.30;;;1.05;;
14076;SDS011;7114;51.100;13.998;2023-04-01T12:37:16;4.78;;;1.00;;
14076;SDS011;7114;51.100;13.998;2023-04-01T12:39:51;4.75;;;0.80;;
14076;SDS011;7114;51.100;13.998;2023-04-01T12:42:31;4.85;;;0.60;;
14076;SDS011;7114;51.100;13.998;2023-04-01T12:48:06;6.32;;;1.42;;
14076;SDS011;7114;51.100;13.998;2023-04-01T12:50:50;6.05;;;1.30;;
14076;SDS011;7114;51.100;13.998;2023-04-01T12:53:29;5.43;;;0.80;;
14076;SDS011;7114;51.100;13.998;2023-04-01T12:56:08;6.50;;;0.90;;
14076;SDS011;7114;51.100;13.998;2023-04-01T12:58:45;4.20;;;0.60;;
14076;SDS011;7114;51.100;13.998;2023-04-01T13:01:37;3.28;;;0.57;;
14076;SDS011;7114;51.100;13.998;2023-04-01T13:07:22;3.63;;;0.60;;
14076;SDS011;7114;51.100;13.998;2023-04-01T13:09:57;3.30;;;0.40;;
14076;SDS011;7114;51.100;13.998;2023-04-01T13:15:27;5.10;;;0.75;;
14076;SDS011;7114;51.100;13.998;2023-04-01T13:17:58;7.03;;;0.80;;
14076;SDS011;7114;51.100;13.998;2023-04-01T13:20:32;4.88;;;0.70;;
14076;SDS011;7114;51.100;13.998;2023-04-01T13:23:07;3.20;;;0.50;;
14076;SDS011;7114;51.100;13.998;2023-04-01T13:25:39;2.40;;;0.33;;
14076;SDS011;7114;51.100;13.998;2023-04-01T13:28:13;4.20;;;0.40;;
14076;SDS011;7114;51.100;13.998;2023-04-01T13:30:43;3.33;;;0.50;;
14076;SDS011;7114;51.100;13.998;2023-04-01T13:33:14;3.05;;;0.40;;
14076;SDS011;7114;51.100;13.998;2023-04-01T13:35:44;3.45;;;0.40;;
14076;SDS011;7114;51.100;13.998;2023-04-01T13:38:31;3.40;;;0.50;;
14076;SDS011;7114;51.100;13.998;2023-04-01T13:41:15;3.00;;;0.40;;
14076;SDS011;7114;51.100;13.998;2023-04-01T13:43:50;2.90;;;0.50;;
14076;SDS011;7114;51.100;13.998;2023-04-01T13:49:11;3.75;;;0.35;;
14076;SDS011;7114;51.100;13.998;2023-04-01T13:52:10;2.80;;;0.60;;
14076;SDS011;7114;51.100;13.998;2023-04-01T13:55:05;2.95;;;0.50;;
14076;SDS011;7114;51.100;13.998;2023-04-01T13:57:52;2.42;;;0.40;;
14076;SDS011;7114;51.100;13.998;2023-04-01T14:00:32;2.17;;;0.50;;
14076;SDS011;7114;51.100;13.998;2023-04-01T14:03:26;2.65;;;0.50;;
14076;SDS011;7114;51.100;13.998;2023-04-01T14:05:56;2.90;;;0.50;;
14076;SDS011;7114;51.100;13.998;2023-04-01T14:08:34;2.55;;;0.40;;
14076;SDS011;7114;51.100;13.998;2023-04-01T14:11:13;5.78;;;1.35;;
14076;SDS011;7114;51.100;13.998;2023-04-01T14:13:44;5.40;;;1.08;;
14076;SDS011;7114;51.100;13.998;2023-04-01T14:16:23;14.23;;;3.08;;
14076;SDS011;7114;51.100;13.998;2023-04-01T14:19:02;10.07;;;3.23;;
14076;SDS011;7114;51.100;13.998;2023-04-01T14:21:33;7.90;;;2.42;;
14076;SDS011;7114;51.100;13.998;2023-04-01T14:24:12;7.75;;;3.08;;
14076;SDS011;7114;51.100;13.998;2023-04-01T14:27:09;5.70;;;2.30;;
14076;SDS011;7114;51.100;13.998;2023-04-01T14:29:45;5.63;;;1.50;;
14076;SDS011;7114;51.100;13.998;2023-04-01T14:32:23;4.30;;;1.13;;
14076;SDS011;7114;51.100;13.998;2023-04-01T14:34:59;5.75;;;1.27;;
14076;SDS011;7114;51.100;13.998;2023-04-01T14:37:48;3.50;;;0.70;;
14076;SDS011;7114;51.100;13.998;2023-04-01T14:40:46;4.82;;;0.80;;
14076;SDS011;7114;51.100;13.998;2023-04-01T14:43:24;4.60;;;1.00;;
14076;SDS011;7114;51.100;13.998;2023-04-01T14:46:27;4.23;;;0.70;;
14076;SDS011;7114;51.100;13.998;2023-04-01T14:49:15;4.00;;;0.73;;
14076;SDS011;7114;51.100;13.998;2023-04-01T14:51:45;4.55;;;0.70;;
14076;SDS011;7114;51.100;13.998;2023-04-01T14:54:13;3.47;;;0.60;;
14076;SDS011;7114;51.100;13.998;2023-04-01T14:56:47;3.38;;;0.50;;
14076;SDS011;7114;51.100;13.998;2023-04-01T14:59:17;3.30;;;0.60;;
14076;SDS011;7114;51.100;13.998;2023-04-01T15:01:55;4.00;;;0.70;;
14076;SDS011;7114;51.100;13.998;2023-04-01T15:07:20;6.07;;;1.33;;
14076;SDS011;7114;51.100;13.998;2023-04-01T15:09:54;7.18;;;2.28;;
14076;SDS011;7114;51.100;13.998;2023-04-01T15:12:24;9.40;;;4.10;;
14076;SDS011;7114;51.100;13.998;2023-04-01T15:15:00;8.30;;;4.32;;
14076;SDS011;7114;51.100;13.998;2023-04-01T15:17:41;11.30;;;4.32;;
14076;SDS011;7114;51.100;13.998;2023-04-01T15:20:15;12.55;;;6.68;;
14076;SDS011;7114;51.100;13.998;2023-04-01T15:22:52;12.85;;;5.97;;
14076;SDS011;7114;51.100;13.998;2023-04-01T15:25:35;11.27;;;4.93;;
14076;SDS011;7114;51.100;13.998;2023-04-01T15:28:10;7.32;;;2.70;;
14076;SDS011;7114;51.100;13.998;2023-04-01T15:30:48;5.97;;;2.20;;
14076;SDS011;7114;51.100;13.998;2023-04-01T15:36:15;4.60;;;1.20;;
14076;SDS011;7114;51.100;13.998;2023-04-01T15:38:48;6.20;;;1.70;;
14076;SDS011;7114;51.100;13.998;2023-04-01T15:41:16;5.30;;;1.58;;
14076;SDS011;7114;51.100;13.998;2023-04-01T15:43:43;5.10;;;1.65;;
14076;SDS011;7114;51.100;13.998;2023-04-01T15:49:11;4.60;;;1.30;;
14076;SDS011;7114;51.100;13.998;2023-04-01T15:51:48;4.47;;;1.10;;
14076;SDS011;7114;51.100;13.998;2023-04-01T15:54:32;4.85;;;0.90;;
14076;SDS011;7114;51.100;13.998;2023-04-01T15:57:08;3.90;;;0.80;;
14076;SDS011;7114;51.100;13.998;2023-04-01T15:59:47;3.67;;;0.60;;
14076;SDS011;7114;51.100;13.998;2023-04-01T16:02:22;3.85;;;0.60;;
14076;SDS011;7114;51.100;13.998;2023-04-01T16:04:57;3.53;;;0.60;;
14076;SDS011;7114;51.100;13.998;2023-04-01T16:07:28;4.13;;;0.90;;
14076;SDS011;7114;51.100;13.998;2023-04-01T16:10:06;3.78;;;0.77;;
14076;SDS011;7114;51.100;13.998;2023-04-01T16:12:40;4.15;;;0.70;;
14076;SDS011;7114;51.100;13.998;2023-04-01T16:15:18;3.97;;;0.90;;